Terminal Aerodrome Forecast
Issued by NWS Detroit/Pontiac, MI

Home | Current Version | Previous Version | Text Only | Print | Product List | Glossary On
Versions: 1 2 3 4 5 6 7 8 9 10 11 12 13 14 15 16
000
FTUS43 KDTX 290959 AAA
TAFFNT
TAF AMD
KFNT 290959Z 2910/3006 16012KT P6SM -SNPL OVC050
     FM291400 21010KT 1 1/2SM -SN BR BKN008 OVC018
     FM291900 30014G25KT 3SM -SHSN BKN012 OVC025
     FM300100 31018G30KT 6SM -SN BKN025 OVC040=

USA.gov is the U.S. government's official web portal to all federal, state and local government web resources and services.